sensor_id;sensor_type;location;lat;lon;timestamp;temperature;humidity
7564;DHT22;3823;53.586;10.040;2023-05-01T04:01:40;7.80;1.00
7564;DHT22;3823;53.586;10.040;2023-05-01T04:04:06;7.80;1.00
7564;DHT22;3823;53.586;10.040;2023-05-01T04:06:32;7.90;1.00
7564;DHT22;3823;53.586;10.040;2023-05-01T04:08:57;7.80;1.00
7564;DHT22;3823;53.586;10.040;2023-05-01T04:11:23;7.90;1.00
7564;DHT22;3823;53.586;10.040;2023-05-01T04:13:48;8.00;1.00
7564;DHT22;3823;53.586;10.040;2023-05-01T04:16:14;7.80;1.00
7564;DHT22;3823;53.586;10.040;2023-05-01T04:18:39;7.80;1.00
7564;DHT22;3823;53.586;10.040;2023-05-01T04:21:05;7.90;1.00
7564;DHT22;3823;53.586;10.040;2023-05-01T04:23:30;7.90;1.00
7564;DHT22;3823;53.586;10.040;2023-05-01T04:25:56;7.90;1.00
7564;DHT22;3823;53.586;10.040;2023-05-01T04:28:21;8.00;1.00
7564;DHT22;3823;53.586;10.040;2023-05-01T04:30:47;8.00;1.00
7564;DHT22;3823;53.586;10.040;2023-05-01T04:33:13;8.00;1.00
7564;DHT22;3823;53.586;10.040;2023-05-01T04:35:39;8.00;1.00
7564;DHT22;3823;53.586;10.040;2023-05-01T04:38:05;7.90;1.00
7564;DHT22;3823;53.586;10.040;2023-05-01T04:40:30;8.00;1.00
7564;DHT22;3823;53.586;10.040;2023-05-01T04:42:56;8.00;1.00
7564;DHT22;3823;53.586;10.040;2023-05-01T04:45:21;8.00;1.00
7564;DHT22;3823;53.586;10.040;2023-05-01T04:47:47;7.90;1.00
7564;DHT22;3823;53.586;10.040;2023-05-01T04:50:13;7.90;1.00
7564;DHT22;3823;53.586;10.040;2023-05-01T04:52:38;7.90;1.00
7564;DHT22;3823;53.586;10.040;2023-05-01T04:55:04;8.00;1.00
7564;DHT22;3823;53.586;10.040;2023-05-01T04:57:30;8.00;1.00
7564;DHT22;3823;53.586;10.040;2023-05-01T04:59:56;8.20;1.00
7564;DHT22;3823;53.586;10.040;2023-05-01T05:02:21;8.20;1.00
7564;DHT22;3823;53.586;10.040;2023-05-01T05:04:47;8.10;1.00
7564;DHT22;3823;53.586;10.040;2023-05-01T05:07:12;8.10;1.00
7564;DHT22;3823;53.586;10.040;2023-05-01T05:09:38;8.20;1.00
7564;DHT22;3823;53.586;10.040;2023-05-01T05:12:04;8.20;1.00
7564;DHT22;3823;53.586;10.040;2023-05-01T05:14:30;8.30;1.00
7564;DHT22;3823;53.586;10.040;2023-05-01T05:16:55;8.50;1.00
7564;DHT22;3823;53.586;10.040;2023-05-01T05:19:21;8.50;1.00
7564;DHT22;3823;53.586;10.040;2023-05-01T05:21:46;8.50;1.00
7564;DHT22;3823;53.586;10.040;2023-05-01T05:24:12;8.50;1.00
7564;DHT22;3823;53.586;10.040;2023-05-01T05:26:38;8.60;1.00
7564;DHT22;3823;53.586;10.040;2023-05-01T05:29:04;8.80;1.00
7564;DHT22;3823;53.586;10.040;2023-05-01T05:31:29;8.90;1.00
7564;DHT22;3823;53.586;10.040;2023-05-01T05:33:55;9.00;1.00
7564;DHT22;3823;53.586;10.040;2023-05-01T05:36:20;9.00;1.00
7564;DHT22;3823;53.586;10.040;2023-05-01T05:38:46;9.10;1.00
7564;DHT22;3823;53.586;10.040;2023-05-01T05:41:12;9.10;1.00
7564;DHT22;3823;53.586;10.040;2023-05-01T05:43:37;9.10;1.00
7564;DHT22;3823;53.586;10.040;2023-05-01T05:46:03;9.00;1.00
7564;DHT22;3823;53.586;10.040;2023-05-01T05:48:28;9.00;1.00
7564;DHT22;3823;53.586;10.040;2023-05-01T05:50:54;9.00;1.00
7564;DHT22;3823;53.586;10.040;2023-05-01T05:53:20;9.00;1.00
7564;DHT22;3823;53.586;10.040;2023-05-01T05:55:46;9.20;1.00
7564;DHT22;3823;53.586;10.040;2023-05-01T05:58:12;9.50;1.00
7564;DHT22;3823;53.586;10.040;2023-05-01T06:00:39;9.40;1.00
7564;DHT22;3823;53.586;10.040;2023-05-01T06:03:05;9.40;1.00
7564;DHT22;3823;53.586;10.040;2023-05-01T06:05:31;9.50;1.00
7564;DHT22;3823;53.586;10.040;2023-05-01T06:07:57;9.50;1.00
7564;DHT22;3823;53.586;10.040;2023-05-01T06:10:23;9.70;1.00
7564;DHT22;3823;53.586;10.040;2023-05-01T06:12:48;9.80;1.00
7564;DHT22;3823;53.586;10.040;2023-05-01T06:15:15;9.90;1.00
7564;DHT22;3823;53.586;10.040;2023-05-01T06:17:41;10.00;1.00
7564;DHT22;3823;53.586;10.040;2023-05-01T06:20:08;10.20;1.00
7564;DHT22;3823;53.586;10.040;2023-05-01T06:22:33;10.30;1.00
7564;DHT22;3823;53.586;10.040;2023-05-01T06:24:59;10.40;1.00
7564;DHT22;3823;53.586;10.040;2023-05-01T06:27:25;10.60;1.00
7564;DHT22;3823;53.586;10.040;2023-05-01T06:29:50;10.60;1.00
7564;DHT22;3823;53.586;10.040;2023-05-01T06:32:16;10.60;1.00
7564;DHT22;3823;53.586;10.040;2023-05-01T06:34:42;10.50;1.00
7564;DHT22;3823;53.586;10.040;2023-05-01T06:37:07;10.60;1.00
7564;DHT22;3823;53.586;10.040;2023-05-01T06:39:33;10.70;1.00
7564;DHT22;3823;53.586;10.040;2023-05-01T06:41:58;11.00;1.00
7564;DHT22;3823;53.586;10.040;2023-05-01T06:44:24;10.90;1.00
7564;DHT22;3823;53.586;10.040;2023-05-01T06:46:50;11.10;1.00
7564;DHT22;3823;53.586;10.040;2023-05-01T06:49:15;11.20;1.00
7564;DHT22;3823;53.586;10.040;2023-05-01T06:51:41;11.20;1.00
7564;DHT22;3823;53.586;10.040;2023-05-01T06:54:07;11.40;1.00
7564;DHT22;3823;53.586;10.040;2023-05-01T06:56:33;11.30;1.00
7564;DHT22;3823;53.586;10.040;2023-05-01T06:58:58;11.10;1.00
7564;DHT22;3823;53.586;10.040;2023-05-01T07:01:24;11.10;1.00
7564;DHT22;3823;53.586;10.040;2023-05-01T07:03:49;11.40;1.00
7564;DHT22;3823;53.586;10.040;2023-05-01T07:06:15;11.60;1.00
7564;DHT22;3823;53.586;10.040;2023-05-01T07:08:40;12.10;1.00
7564;DHT22;3823;53.586;10.040;2023-05-01T07:11:06;12.40;1.00
7564;DHT22;3823;53.586;10.040;2023-05-01T07:13:32;12.50;1.00
7564;DHT22;3823;53.586;10.040;2023-05-01T07:15:57;12.60;1.00
7564;DHT22;3823;53.586;10.040;2023-05-01T07:18:23;12.60;1.00
7564;DHT22;3823;53.586;10.040;2023-05-01T07:20:48;12.50;1.00
7564;DHT22;3823;53.586;10.040;2023-05-01T07:23:14;12.70;1.00
7564;DHT22;3823;53.586;10.040;2023-05-01T07:25:40;12.50;1.00
7564;DHT22;3823;53.586;10.040;2023-05-01T07:28:07;12.70;1.00
7564;DHT22;3823;53.586;10.040;2023-05-01T07:30:34;12.90;1.00
7564;DHT22;3823;53.586;10.040;2023-05-01T07:33:00;13.00;1.00
7564;DHT22;3823;53.586;10.040;2023-05-01T07:35:26;13.00;1.00
7564;DHT22;3823;53.586;10.040;2023-05-01T07:37:52;13.00;1.00
7564;DHT22;3823;53.586;10.040;2023-05-01T07:40:19;13.10;1.00
7564;DHT22;3823;53.586;10.040;2023-05-01T07:42:45;13.00;1.00
7564;DHT22;3823;53.586;10.040;2023-05-01T07:45:10;12.90;1.00
7564;DHT22;3823;53.586;10.040;2023-05-01T07:47:36;12.90;1.00
7564;DHT22;3823;53.586;10.040;2023-05-01T07:50:02;12.90;1.00
7564;DHT22;3823;53.586;10.040;2023-05-01T07:52:28;12.90;1.00
7564;DHT22;3823;53.586;10.040;2023-05-01T07:54:53;13.20;1.00
7564;DHT22;3823;53.586;10.040;2023-05-01T07:57:19;13.40;1.00
7564;DHT22;3823;53.586;10.040;2023-05-01T07:59:44;13.60;1.00
7564;DHT22;3823;53.586;10.040;2023-05-01T08:02:10;13.80;1.00
7564;DHT22;3823;53.586;10.040;2023-05-01T08:04:37;13.60;1.00
7564;DHT22;3823;53.586;10.040;2023-05-01T08:07:03;13.50;1.00
7564;DHT22;3823;53.586;10.040;2023-05-01T08:09:29;13.50;1.00
7564;DHT22;3823;53.586;10.040;2023-05-01T08:11:55;13.70;1.00
7564;DHT22;3823;53.586;10.040;2023-05-01T08:14:20;14.10;1.00
7564;DHT22;3823;53.586;10.040;2023-05-01T08:16:46;14.30;1.00
7564;DHT22;3823;53.586;10.040;2023-05-01T08:19:12;14.10;1.00
7564;DHT22;3823;53.586;10.040;2023-05-01T08:21:37;14.00;1.00
7564;DHT22;3823;53.586;10.040;2023-05-01T08:24:03;14.30;1.00
7564;DHT22;3823;53.586;10.040;2023-05-01T08:26:29;14.30;1.00
7564;DHT22;3823;53.586;10.040;2023-05-01T08:28:54;14.30;1.00
7564;DHT22;3823;53.586;10.040;2023-05-01T08:31:20;14.10;1.00
7564;DHT22;3823;53.586;10.040;2023-05-01T08:33:45;14.20;1.00
7564;DHT22;3823;53.586;10.040;2023-05-01T08:36:11;14.60;1.00
7564;DHT22;3823;53.586;10.040;2023-05-01T08:38:37;14.70;1.00
7564;DHT22;3823;53.586;10.040;2023-05-01T08:41:02;14.80;1.00
7564;DHT22;3823;53.586;10.040;2023-05-01T08:43:30;14.50;1.00
7564;DHT22;3823;53.586;10.040;2023-05-01T08:45:58;14.30;1.00
7564;DHT22;3823;53.586;10.040;2023-05-01T08:48:24;14.40;1.00
7564;DHT22;3823;53.586;10.040;2023-05-01T08:50:54;14.70;1.00
7564;DHT22;3823;53.586;10.040;2023-05-01T08:53:21;14.70;1.00
7564;DHT22;3823;53.586;10.040;2023-05-01T08:55:47;14.80;1.00
7564;DHT22;3823;53.586;10.040;2023-05-01T08:58:16;15.20;1.00
7564;DHT22;3823;53.586;10.040;2023-05-01T09:00:43;15.80;1.00
7564;DHT22;3823;53.586;10.040;2023-05-01T09:03:11;15.70;1.00
7564;DHT22;3823;53.586;10.040;2023-05-01T09:05:38;16.40;1.00
7564;DHT22;3823;53.586;10.040;2023-05-01T09:08:04;16.90;1.00
7564;DHT22;3823;53.586;10.040;2023-05-01T09:10:30;16.70;1.00
7564;DHT22;3823;53.586;10.040;2023-05-01T09:13:01;16.60;1.00
7564;DHT22;3823;53.586;10.040;2023-05-01T09:15:28;15.60;1.00
7564;DHT22;3823;53.586;10.040;2023-05-01T09:17:56;15.30;1.00
7564;DHT22;3823;53.586;10.040;2023-05-01T09:20:23;15.40;1.00
7564;DHT22;3823;53.586;10.040;2023-05-01T09:22:49;15.60;1.00
7564;DHT22;3823;53.586;10.040;2023-05-01T09:25:15;16.00;1.00
7564;DHT22;3823;53.586;10.040;2023-05-01T09:27:41;16.30;1.00
7564;DHT22;3823;53.586;10.040;2023-05-01T09:30:07;16.60;1.00
7564;DHT22;3823;53.586;10.040;2023-05-01T09:32:33;16.40;1.00
7564;DHT22;3823;53.586;10.040;2023-05-01T09:35:10;16.60;1.00
7564;DHT22;3823;53.586;10.040;2023-05-01T09:37:36;16.90;1.00
7564;DHT22;3823;53.586;10.040;2023-05-01T09:40:06;16.90;1.00
7564;DHT22;3823;53.586;10.040;2023-05-01T09:42:33;17.60;1.00
7564;DHT22;3823;53.586;10.040;2023-05-01T09:45:00;17.50;1.00
7564;DHT22;3823;53.586;10.040;2023-05-01T09:47:29;17.00;1.00
7564;DHT22;3823;53.586;10.040;2023-05-01T09:49:56;16.40;1.00
7564;DHT22;3823;53.586;10.040;2023-05-01T09:52:26;16.40;1.00
7564;DHT22;3823;53.586;10.040;2023-05-01T09:55:21;16.40;1.00
7564;DHT22;3823;53.586;10.040;2023-05-01T09:57:48;16.70;1.00
7564;DHT22;3823;53.586;10.040;2023-05-01T10:00:15;16.50;1.00
7564;DHT22;3823;53.586;10.040;2023-05-01T10:02:43;16.30;1.00
7564;DHT22;3823;53.586;10.040;2023-05-01T10:05:09;16.40;1.00
7564;DHT22;3823;53.586;10.040;2023-05-01T10:07:36;16.60;1.00
7564;DHT22;3823;53.586;10.040;2023-05-01T10:10:18;16.60;1.00
7564;DHT22;3823;53.586;10.040;2023-05-01T10:12:44;16.80;1.00
7564;DHT22;3823;53.586;10.040;2023-05-01T10:15:09;16.90;1.00
7564;DHT22;3823;53.586;10.040;2023-05-01T10:17:37;16.80;1.00
7564;DHT22;3823;53.586;10.040;2023-05-01T10:20:03;16.80;1.00
7564;DHT22;3823;53.586;10.040;2023-05-01T10:22:29;17.10;1.00
7564;DHT22;3823;53.586;10.040;2023-05-01T10:24:55;16.80;1.00
7564;DHT22;3823;53.586;10.040;2023-05-01T10:27:22;16.70;1.00
7564;DHT22;3823;53.586;10.040;2023-05-01T10:29:51;17.00;1.00
7564;DHT22;3823;53.586;10.040;2023-05-01T10:32:17;17.60;1.00
7564;DHT22;3823;53.586;10.040;2023-05-01T10:34:49;17.20;1.00
7564;DHT22;3823;53.586;10.040;2023-05-01T10:37:21;17.30;1.00
7564;DHT22;3823;53.586;10.040;2023-05-01T10:39:47;17.50;1.00
7564;DHT22;3823;53.586;10.040;2023-05-01T10:42:13;17.40;1.00
7564;DHT22;3823;53.586;10.040;2023-05-01T10:44:40;17.40;1.00
7564;DHT22;3823;53.586;10.040;2023-05-01T10:50:12;18.00;1.00
7564;DHT22;3823;53.586;10.040;2023-05-01T10:55:41;17.80;1.00
7564;DHT22;3823;53.586;10.040;2023-05-01T11:03:52;19.00;1.00
7564;DHT22;3823;53.586;10.040;2023-05-01T11:06:17;19.10;1.00
7564;DHT22;3823;53.586;10.040;2023-05-01T11:08:43;19.00;1.00
7564;DHT22;3823;53.586;10.040;2023-05-01T11:14:07;18.50;1.00
7564;DHT22;3823;53.586;10.040;2023-05-01T11:19:01;18.70;1.00
7564;DHT22;3823;53.586;10.040;2023-05-01T11:21:31;19.00;1.00
7564;DHT22;3823;53.586;10.040;2023-05-01T11:24:00;19.20;1.00
7564;DHT22;3823;53.586;10.040;2023-05-01T11:26:27;19.30;1.00
7564;DHT22;3823;53.586;10.040;2023-05-01T11:28:56;19.20;1.00
7564;DHT22;3823;53.586;10.040;2023-05-01T11:31:22;19.10;1.00
7564;DHT22;3823;53.586;10.040;2023-05-01T11:33:48;18.40;1.00
7564;DHT22;3823;53.586;10.040;2023-05-01T11:36:14;18.20;1.00
7564;DHT22;3823;53.586;10.040;2023-05-01T11:41:19;18.50;1.00
7564;DHT22;3823;53.586;10.040;2023-05-01T11:46:29;19.70;1.00
7564;DHT22;3823;53.586;10.040;2023-05-01T11:48:56;20.20;1.00
7564;DHT22;3823;53.586;10.040;2023-05-01T11:51:22;19.90;1.00
7564;DHT22;3823;53.586;10.040;2023-05-01T11:54:08;19.50;1.00
7564;DHT22;3823;53.586;10.040;2023-05-01T11:56:35;19.60;1.00
7564;DHT22;3823;53.586;10.040;2023-05-01T11:59:12;19.50;1.00
7564;DHT22;3823;53.586;10.040;2023-05-01T12:01:45;19.40;1.00
7564;DHT22;3823;53.586;10.040;2023-05-01T12:04:12;19.70;1.00
7564;DHT22;3823;53.586;10.040;2023-05-01T12:06:40;19.10;1.00
7564;DHT22;3823;53.586;10.040;2023-05-01T12:11:37;19.00;1.00
7564;DHT22;3823;53.586;10.040;2023-05-01T12:14:04;19.60;1.00
7564;DHT22;3823;53.586;10.040;2023-05-01T12:16:29;19.70;1.00
7564;DHT22;3823;53.586;10.040;2023-05-01T12:18:55;19.30;1.00
7564;DHT22;3823;53.586;10.040;2023-05-01T12:21:21;19.20;1.00
7564;DHT22;3823;53.586;10.040;2023-05-01T12:23:47;19.10;1.00
7564;DHT22;3823;53.586;10.040;2023-05-01T12:26:18;19.30;1.00
7564;DHT22;3823;53.586;10.040;2023-05-01T12:31:19;19.60;1.00
7564;DHT22;3823;53.586;10.040;2023-05-01T12:33:55;19.90;1.00
7564;DHT22;3823;53.586;10.040;2023-05-01T12:36:23;19.80;1.00
7564;DHT22;3823;53.586;10.040;2023-05-01T12:38:59;19.70;1.00
7564;DHT22;3823;53.586;10.040;2023-05-01T12:41:51;19.60;1.00
7564;DHT22;3823;53.586;10.040;2023-05-01T12:46:45;19.10;1.00
7564;DHT22;3823;53.586;10.040;2023-05-01T12:49:20;19.20;1.00
7564;DHT22;3823;53.586;10.040;2023-05-01T12:51:47;19.30;1.00
7564;DHT22;3823;53.586;10.040;2023-05-01T12:54:18;19.50;1.00
7564;DHT22;3823;53.586;10.040;2023-05-01T12:56:44;19.80;1.00
7564;DHT22;3823;53.586;10.040;2023-05-01T12:59:24;19.90;1.00
7564;DHT22;3823;53.586;10.040;2023-05-01T13:02:05;20.20;1.00
7564;DHT22;3823;53.586;10.040;2023-05-01T13:04:31;20.50;1.00
7564;DHT22;3823;53.586;10.040;2023-05-01T13:07:16;20.60;1.00
7564;DHT22;3823;53.586;10.040;2023-05-01T13:09:53;20.50;1.00
7564;DHT22;3823;53.586;10.040;2023-05-01T13:12:19;20.30;1.00
7564;DHT22;3823;53.586;10.040;2023-05-01T13:14:45;20.10;1.00
7564;DHT22;3823;53.586;10.040;2023-05-01T13:17:11;20.10;1.00
7564;DHT22;3823;53.586;10.040;2023-05-01T13:19:37;20.10;1.00
7564;DHT22;3823;53.586;10.040;2023-05-01T13:22:05;19.80;1.00
7564;DHT22;3823;53.586;10.040;2023-05-01T13:24:49;20.00;1.00
7564;DHT22;3823;53.586;10.040;2023-05-01T13:27:20;20.10;1.00
7564;DHT22;3823;53.586;10.040;2023-05-01T13:29:52;20.00;1.00
7564;DHT22;3823;53.586;10.040;2023-05-01T13:32:19;20.00;1.00
7564;DHT22;3823;53.586;10.040;2023-05-01T13:34:45;20.00;1.00
7564;DHT22;3823;53.586;10.040;2023-05-01T13:37:11;19.90;1.00
7564;DHT22;3823;53.586;10.040;2023-05-01T13:39:43;19.90;1.00
7564;DHT22;3823;53.586;10.040;2023-05-01T13:42:17;19.80;1.00
7564;DHT22;3823;53.586;10.040;2023-05-01T13:44:51;19.70;1.00
7564;DHT22;3823;53.586;10.040;2023-05-01T13:47:17;19.50;1.00
7564;DHT22;3823;53.586;10.040;2023-05-01T13:49:43;19.60;1.00
7564;DHT22;3823;53.586;10.040;2023-05-01T13:52:17;19.80;1.00
7564;DHT22;3823;53.586;10.040;2023-05-01T13:54:43;19.80;1.00
7564;DHT22;3823;53.586;10.040;2023-05-01T13:57:09;19.70;1.00
7564;DHT22;3823;53.586;10.040;2023-05-01T13:59:42;19.60;1.00
7564;DHT22;3823;53.586;10.040;2023-05-01T14:02:28;19.70;1.00
7564;DHT22;3823;53.586;10.040;2023-05-01T14:04:53;19.90;1.00
7564;DHT22;3823;53.586;10.040;2023-05-01T14:07:21;20.00;1.00
7564;DHT22;3823;53.586;10.040;2023-05-01T14:09:57;20.20;1.00
7564;DHT22;3823;53.586;10.040;2023-05-01T14:12:29;20.40;1.00
7564;DHT22;3823;53.586;10.040;2023-05-01T14:14:55;20.50;1.00
7564;DHT22;3823;53.586;10.040;2023-05-01T14:17:39;20.50;1.00
7564;DHT22;3823;53.586;10.040;2023-05-01T14:20:06;20.50;1.00
7564;DHT22;3823;53.586;10.040;2023-05-01T14:22:40;20.70;1.00
7564;DHT22;3823;53.586;10.040;2023-05-01T14:25:35;20.70;1.00
7564;DHT22;3823;53.586;10.040;2023-05-01T14:28:05;20.80;1.00
7564;DHT22;3823;53.586;10.040;2023-05-01T14:30:34;20.80;1.00
7564;DHT22;3823;53.586;10.040;2023-05-01T14:33:08;20.60;1.00
7564;DHT22;3823;53.586;10.040;2023-05-01T14:35:34;20.70;1.00
7564;DHT22;3823;53.586;10.040;2023-05-01T14:38:09;20.80;1.00
7564;DHT22;3823;53.586;10.040;2023-05-01T14:40:38;20.50;1.00
7564;DHT22;3823;53.586;10.040;2023-05-01T14:43:03;20.70;1.00
7564;DHT22;3823;53.586;10.040;2023-05-01T14:45:30;20.80;1.00
7564;DHT22;3823;53.586;10.040;2023-05-01T14:47:56;20.80;1.00
7564;DHT22;3823;53.586;10.040;2023-05-01T14:50:22;20.80;1.00
7564;DHT22;3823;53.586;10.040;2023-05-01T14:52:53;20.60;1.00
7564;DHT22;3823;53.586;10.040;2023-05-01T14:55:24;20.50;1.00
7564;DHT22;3823;53.586;10.040;2023-05-01T14:57:51;20.50;1.00
7564;DHT22;3823;53.586;10.040;2023-05-01T15:00:17;20.50;1.00
7564;DHT22;3823;53.586;10.040;2023-05-01T15:02:43;20.70;1.00
7564;DHT22;3823;53.586;10.040;2023-05-01T15:05:09;20.80;1.00
7564;DHT22;3823;53.586;10.040;2023-05-01T15:07:34;20.80;1.00
7564;DHT22;3823;53.586;10.040;2023-05-01T15:10:00;20.80;1.00
7564;DHT22;3823;53.586;10.040;2023-05-01T15:12:25;20.80;1.00
7564;DHT22;3823;53.586;10.040;2023-05-01T15:14:51;20.80;1.00
7564;DHT22;3823;53.586;10.040;2023-05-01T15:17:17;20.80;1.00
7564;DHT22;3823;53.586;10.040;2023-05-01T15:19:42;20.70;1.00
7564;DHT22;3823;53.586;10.040;2023-05-01T15:22:08;20.60;1.00
7564;DHT22;3823;53.586;10.040;2023-05-01T15:24:33;20.50;1.00
7564;DHT22;3823;53.586;10.040;2023-05-01T15:26:59;20.50;1.00
7564;DHT22;3823;53.586;10.040;2023-05-01T15:29:25;20.40;1.00
7564;DHT22;3823;53.586;10.040;2023-05-01T15:31:50;20.40;1.00
7564;DHT22;3823;53.586;10.040;2023-05-01T15:34:17;20.30;1.00
7564;DHT22;3823;53.586;10.040;2023-05-01T15:36:43;20.30;1.00
7564;DHT22;3823;53.586;10.040;2023-05-01T15:39:08;20.20;1.00
7564;DHT22;3823;53.586;10.040;2023-05-01T15:41:36;20.10;1.00
7564;DHT22;3823;53.586;10.040;2023-05-01T15:44:02;20.10;1.00
7564;DHT22;3823;53.586;10.040;2023-05-01T15:46:30;20.10;1.00
7564;DHT22;3823;53.586;10.040;2023-05-01T15:48:55;20.10;1.00
7564;DHT22;3823;53.586;10.040;2023-05-01T15:51:21;20.00;1.00
7564;DHT22;3823;53.586;10.040;2023-05-01T15:53:47;20.00;1.00
7564;DHT22;3823;53.586;10.040;2023-05-01T15:56:12;20.00;1.00
7564;DHT22;3823;53.586;10.040;2023-05-01T15:58:38;20.00;1.00
7564;DHT22;3823;53.586;10.040;2023-05-01T16:01:03;20.00;1.00
7564;DHT22;3823;53.586;10.040;2023-05-01T16:03:29;20.00;1.00
7564;DHT22;3823;53.586;10.040;2023-05-01T16:05:54;20.00;1.00
7564;DHT22;3823;53.586;10.040;2023-05-01T16:08:22;20.00;1.00
7564;DHT22;3823;53.586;10.040;2023-05-01T16:10:48;20.00;1.00
7564;DHT22;3823;53.586;10.040;2023-05-01T16:13:14;20.10;1.00
7564;DHT22;3823;53.586;10.040;2023-05-01T16:15:40;20.10;1.00
7564;DHT22;3823;53.586;10.040;2023-05-01T16:18:05;20.10;1.00
7564;DHT22;3823;53.586;10.040;2023-05-01T16:20:41;20.10;1.00
7564;DHT22;3823;53.586;10.040;2023-05-01T16:23:06;20.10;1.00
7564;DHT22;3823;53.586;10.040;2023-05-01T16:25:33;20.10;1.00
7564;DHT22;3823;53.586;10.040;2023-05-01T16:27:58;20.10;1.00
7564;DHT22;3823;53.586;10.040;2023-05-01T16:30:24;20.10;1.00
7564;DHT22;3823;53.586;10.040;2023-05-01T16:32:52;20.10;1.00
7564;DHT22;3823;53.586;10.040;2023-05-01T16:35:19;20.10;1.00
7564;DHT22;3823;53.586;10.040;2023-05-01T16:37:46;20.10;1.00
7564;DHT22;3823;53.586;10.040;2023-05-01T16:40:16;20.10;1.00
7564;DHT22;3823;53.586;10.040;2023-05-01T16:42:42;20.10;1.00
7564;DHT22;3823;53.586;10.040;2023-05-01T16:45:08;20.00;1.00
7564;DHT22;3823;53.586;10.040;2023-05-01T16:47:34;19.90;1.00
7564;DHT22;3823;53.586;10.040;2023-05-01T16:50:00;19.90;1.00
7564;DHT22;3823;53.586;10.040;2023-05-01T16:52:26;19.80;1.00
7564;DHT22;3823;53.586;10.040;2023-05-01T16:54:51;19.80;1.00
7564;DHT22;3823;53.586;10.040;2023-05-01T16:57:18;19.70;1.00
7564;DHT22;3823;53.586;10.040;2023-05-01T16:59:44;19.60;1.00
7564;DHT22;3823;53.586;10.040;2023-05-01T17:02:10;19.50;1.00
7564;DHT22;3823;53.586;10.040;2023-05-01T17:04:35;19.40;1.00
7564;DHT22;3823;53.586;10.040;2023-05-01T17:07:01;19.30;1.00
7564;DHT22;3823;53.586;10.040;2023-05-01T17:09:26;19.30;1.00
7564;DHT22;3823;53.586;10.040;2023-05-01T17:11:52;19.30;1.00
7564;DHT22;3823;53.586;10.040;2023-05-01T17:14:20;19.20;1.00
7564;DHT22;3823;53.586;10.040;2023-05-01T17:16:46;19.10;1.00
7564;DHT22;3823;53.586;10.040;2023-05-01T17:19:12;19.10;1.00
7564;DHT22;3823;53.586;10.040;2023-05-01T17:21:38;19.10;1.00
7564;DHT22;3823;53.586;10.040;2023-05-01T17:24:03;19.10;1.00
7564;DHT22;3823;53.586;10.040;2023-05-01T17:26:29;19.10;1.00
7564;DHT22;3823;53.586;10.040;2023-05-01T17:28:54;19.00;1.00
7564;DHT22;3823;53.586;10.040;2023-05-01T17:31:20;19.00;1.00
7564;DHT22;3823;53.586;10.040;2023-05-01T17:33:45;19.00;1.00
7564;DHT22;3823;53.586;10.040;2023-05-01T17:36:11;18.90;1.00
7564;DHT22;3823;53.586;10.040;2023-05-01T17:38:37;18.80;1.00
7564;DHT22;3823;53.586;10.040;2023-05-01T17:41:02;18.60;1.00
7564;DHT22;3823;53.586;10.040;2023-05-01T17:43:28;18.50;1.00
7564;DHT22;3823;53.586;10.040;2023-05-01T17:45:53;18.40;1.00
7564;DHT22;3823;53.586;10.040;2023-05-01T17:48:19;18.40;1.00
7564;DHT22;3823;53.586;10.040;2023-05-01T17:50:44;18.30;1.00
7564;DHT22;3823;53.586;10.040;2023-05-01T17:53:10;18.20;1.00
7564;DHT22;3823;53.586;10.040;2023-05-01T17:55:36;18.10;1.00
7564;DHT22;3823;53.586;10.040;2023-05-01T17:58:03;18.00;1.00
7564;DHT22;3823;53.586;10.040;2023-05-01T18:00:28;17.90;1.00
7564;DHT22;3823;53.586;10.040;2023-05-01T18:02:56;17.80;1.00
7564;DHT22;3823;53.586;10.040;2023-05-01T18:05:22;17.80;1.00
7564;DHT22;3823;53.586;10.040;2023-05-01T18:07:47;17.80;1.00
7564;DHT22;3823;53.586;10.040;2023-05-01T18:10:13;17.70;1.00
7564;DHT22;3823;53.586;10.040;2023-05-01T18:12:38;17.70;1.00
7564;DHT22;3823;53.586;10.040;2023-05-01T18:15:04;17.60;1.00
7564;DHT22;3823;53.586;10.040;2023-05-01T18:17:30;17.60;1.00
7564;DHT22;3823;53.586;10.040;2023-05-01T18:19:55;17.70;1.00
7564;DHT22;3823;53.586;10.040;2023-05-01T18:22:21;17.70;1.00
7564;DHT22;3823;53.586;10.040;2023-05-01T18:24:46;17.70;1.00
7564;DHT22;3823;53.586;10.040;2023-05-01T18:27:12;17.60;1.00
7564;DHT22;3823;53.586;10.040;2023-05-01T18:29:37;17.60;1.00
7564;DHT22;3823;53.586;10.040;2023-05-01T18:32:03;17.50;1.00
7564;DHT22;3823;53.586;10.040;2023-05-01T18:34:29;17.50;1.00
7564;DHT22;3823;53.586;10.040;2023-05-01T18:36:54;17.40;1.00
7564;DHT22;3823;53.586;10.040;2023-05-01T18:39:20;17.40;1.00
7564;DHT22;3823;53.586;10.040;2023-05-01T18:41:47;17.40;1.00
7564;DHT22;3823;53.586;10.040;2023-05-01T18:44:13;17.40;1.00
7564;DHT22;3823;53.586;10.040;2023-05-01T18:46:39;17.40;1.00
7564;DHT22;3823;53.586;10.040;2023-05-01T18:49:04;17.40;1.00
7564;DHT22;3823;53.586;10.040;2023-05-01T18:51:30;17.30;1.00
7564;DHT22;3823;53.586;10.040;2023-05-01T18:53:56;17.30;1.00
7564;DHT22;3823;53.586;10.040;2023-05-01T18:56:23;17.20;1.00
7564;DHT22;3823;53.586;10.040;2023-05-01T18:58:49;17.20;1.00
7564;DHT22;3823;53.586;10.040;2023-05-01T19:01:15;17.10;1.00
7564;DHT22;3823;53.586;10.040;2023-05-01T19:03:40;17.00;1.00
7564;DHT22;3823;53.586;10.040;2023-05-01T19:06:06;17.00;1.00
7564;DHT22;3823;53.586;10.040;2023-05-01T19:08:35;16.80;1.00
7564;DHT22;3823;53.586;10.040;2023-05-01T19:11:00;16.80;1.00
7564;DHT22;3823;53.586;10.040;2023-05-01T19:13:26;16.70;1.00
7564;DHT22;3823;53.586;10.040;2023-05-01T19:15:51;16.70;1.00
7564;DHT22;3823;53.586;10.040;2023-05-01T19:18:17;16.70;1.00
7564;DHT22;3823;53.586;10.040;2023-05-01T19:20:43;16.60;1.00
7564;DHT22;3823;53.586;10.040;2023-05-01T19:23:10;16.60;1.00
7564;DHT22;3823;53.586;10.040;2023-05-01T19:25:36;16.60;1.00
7564;DHT22;3823;53.586;10.040;2023-05-01T19:28:02;16.50;1.00
7564;DHT22;3823;53.586;10.040;2023-05-01T19:30:28;16.50;1.00
7564;DHT22;3823;53.586;10.040;2023-05-01T19:32:54;16.40;1.00
7564;DHT22;3823;53.586;10.040;2023-05-01T19:35:19;16.40;1.00
7564;DHT22;3823;53.586;10.040;2023-05-01T19:37:45;16.30;1.00
7564;DHT22;3823;53.586;10.040;2023-05-01T19:40:11;16.20;1.00
7564;DHT22;3823;53.586;10.040;2023-05-01T19:42:36;16.30;1.00
7564;DHT22;3823;53.586;10.040;2023-05-01T19:45:02;16.20;1.00
7564;DHT22;3823;53.586;10.040;2023-05-01T19:47:28;16.20;1.00
7564;DHT22;3823;53.586;10.040;2023-05-01T19:49:53;16.10;1.00
7564;DHT22;3823;53.586;10.040;2023-05-01T19:52:19;16.10;1.00
7564;DHT22;3823;53.586;10.040;2023-05-01T19:54:44;16.00;1.00
7564;DHT22;3823;53.586;10.040;2023-05-01T19:57:10;16.00;1.00
7564;DHT22;3823;53.586;10.040;2023-05-01T19:59:37;16.00;1.00
7564;DHT22;3823;53.586;10.040;2023-05-01T20:02:05;16.00;1.00
7564;DHT22;3823;53.586;10.040;2023-05-01T20:04:30;15.90;1.00
7564;DHT22;3823;53.586;10.040;2023-05-01T20:06:56;15.80;1.00
7564;DHT22;3823;53.586;10.040;2023-05-01T20:09:22;15.80;1.00
7564;DHT22;3823;53.586;10.040;2023-05-01T20:11:47;15.80;1.00
7564;DHT22;3823;53.586;10.040;2023-05-01T20:14:13;15.70;1.00
7564;DHT22;3823;53.586;10.040;2023-05-01T20:16:38;15.70;1.00
7564;DHT22;3823;53.586;10.040;2023-05-01T20:19:04;15.60;1.00
7564;DHT22;3823;53.586;10.040;2023-05-01T20:21:30;15.60;1.00
7564;DHT22;3823;53.586;10.040;2023-05-01T20:23:56;15.60;1.00
7564;DHT22;3823;53.586;10.040;2023-05-01T20:26:22;15.60;1.00
7564;DHT22;3823;53.586;10.040;2023-05-01T20:28:48;15.60;1.00
7564;DHT22;3823;53.586;10.040;2023-05-01T20:31:15;15.50;1.00
7564;DHT22;3823;53.586;10.040;2023-05-01T20:33:41;15.50;1.00